sensor_id;sensor_type;location;lat;lon;timestamp;P1;durP1;ratioP1;P2;durP2;ratioP2
48026;SDS011;50714;49.208;5.364;2022-08-25T00:09:41;1.58;;;1.30;;
48026;SDS011;50714;49.208;5.364;2022-08-25T00:19:41;1.67;;;1.35;;
48026;SDS011;50714;49.208;5.364;2022-08-25T00:29:41;1.38;;;1.27;;
48026;SDS011;50714;49.208;5.364;2022-08-25T00:39:42;2.95;;;1.48;;
48026;SDS011;50714;49.208;5.364;2022-08-25T00:49:44;1.50;;;1.40;;
48026;SDS011;50714;49.208;5.364;2022-08-25T00:59:48;1.80;;;1.50;;
48026;SDS011;50714;49.208;5.364;2022-08-25T01:09:49;2.22;;;1.50;;
48026;SDS011;50714;49.208;5.364;2022-08-25T01:19:51;2.83;;;1.42;;
48026;SDS011;50714;49.208;5.364;2022-08-25T01:29:52;3.47;;;1.50;;
48026;SDS011;50714;49.208;5.364;2022-08-25T01:39:53;3.80;;;1.70;;
48026;SDS011;50714;49.208;5.364;2022-08-25T01:49:53;2.83;;;1.60;;
48026;SDS011;50714;49.208;5.364;2022-08-25T01:59:54;2.33;;;1.67;;
48026;SDS011;50714;49.208;5.364;2022-08-25T02:09:54;1.70;;;1.58;;
48026;SDS011;50714;49.208;5.364;2022-08-25T02:19:54;1.70;;;1.60;;
48026;SDS011;50714;49.208;5.364;2022-08-25T02:29:56;1.92;;;1.40;;
48026;SDS011;50714;49.208;5.364;2022-08-25T02:39:56;1.70;;;1.58;;
48026;SDS011;50714;49.208;5.364;2022-08-25T02:49:56;2.10;;;1.88;;
48026;SDS011;50714;49.208;5.364;2022-08-25T02:59:57;2.30;;;1.67;;
48026;SDS011;50714;49.208;5.364;2022-08-25T03:09:58;1.48;;;1.38;;
48026;SDS011;50714;49.208;5.364;2022-08-25T03:19:58;2.63;;;1.50;;
48026;SDS011;50714;49.208;5.364;2022-08-25T03:29:59;2.00;;;1.60;;
48026;SDS011;50714;49.208;5.364;2022-08-25T03:40:00;2.10;;;1.90;;
48026;SDS011;50714;49.208;5.364;2022-08-25T03:50:06;2.72;;;1.95;;
48026;SDS011;50714;49.208;5.364;2022-08-25T04:00:10;4.75;;;1.55;;
48026;SDS011;50714;49.208;5.364;2022-08-25T04:10:11;2.85;;;1.27;;
48026;SDS011;50714;49.208;5.364;2022-08-25T04:20:12;2.47;;;1.90;;
48026;SDS011;50714;49.208;5.364;2022-08-25T04:30:12;2.73;;;1.93;;
48026;SDS011;50714;49.208;5.364;2022-08-25T04:40:13;2.97;;;1.77;;
48026;SDS011;50714;49.208;5.364;2022-08-25T04:50:14;2.80;;;1.67;;
48026;SDS011;50714;49.208;5.364;2022-08-25T05:00:14;1.98;;;1.55;;
48026;SDS011;50714;49.208;5.364;2022-08-25T05:10:15;3.13;;;2.58;;
48026;SDS011;50714;49.208;5.364;2022-08-25T05:20:16;5.47;;;3.97;;
48026;SDS011;50714;49.208;5.364;2022-08-25T05:30:17;6.22;;;4.20;;
48026;SDS011;50714;49.208;5.364;2022-08-25T05:40:18;3.67;;;2.65;;
48026;SDS011;50714;49.208;5.364;2022-08-25T05:50:18;2.70;;;1.98;;
48026;SDS011;50714;49.208;5.364;2022-08-25T06:00:19;2.20;;;2.00;;
48026;SDS011;50714;49.208;5.364;2022-08-25T06:10:19;1.83;;;1.45;;
48026;SDS011;50714;49.208;5.364;2022-08-25T06:20:21;3.30;;;1.90;;
48026;SDS011;50714;49.208;5.364;2022-08-25T06:30:23;2.08;;;1.33;;
48026;SDS011;50714;49.208;5.364;2022-08-25T06:40:24;2.95;;;1.75;;
48026;SDS011;50714;49.208;5.364;2022-08-25T06:50:24;1.43;;;1.30;;
48026;SDS011;50714;49.208;5.364;2022-08-25T07:00:25;1.42;;;1.10;;
48026;SDS011;50714;49.208;5.364;2022-08-25T07:10:26;1.02;;;0.90;;
48026;SDS011;50714;49.208;5.364;2022-08-25T07:20:26;1.52;;;1.20;;
48026;SDS011;50714;49.208;5.364;2022-08-25T07:30:28;1.55;;;1.20;;
48026;SDS011;50714;49.208;5.364;2022-08-25T07:40:30;1.13;;;1.00;;
48026;SDS011;50714;49.208;5.364;2022-08-25T07:50:33;1.17;;;1.08;;
48026;SDS011;50714;49.208;5.364;2022-08-25T08:00:34;2.15;;;1.10;;
48026;SDS011;50714;49.208;5.364;2022-08-25T08:10:40;1.20;;;1.10;;
48026;SDS011;50714;49.208;5.364;2022-08-25T08:20:42;1.23;;;1.00;;
48026;SDS011;50714;49.208;5.364;2022-08-25T08:30:44;2.57;;;1.10;;
48026;SDS011;50714;49.208;5.364;2022-08-25T08:40:47;1.02;;;0.63;;
48026;SDS011;50714;49.208;5.364;2022-08-25T08:51:20;1.70;;;0.88;;
48026;SDS011;50714;49.208;5.364;2022-08-25T09:01:30;1.30;;;0.90;;
48026;SDS011;50714;49.208;5.364;2022-08-25T09:32:37;1.20;;;0.98;;
48026;SDS011;50714;49.208;5.364;2022-08-25T09:42:48;1.05;;;0.80;;
48026;SDS011;50714;49.208;5.364;2022-08-25T09:52:50;0.95;;;0.90;;
48026;SDS011;50714;49.208;5.364;2022-08-25T10:13:03;1.00;;;0.90;;
48026;SDS011;50714;49.208;5.364;2022-08-25T10:23:13;0.98;;;0.80;;
48026;SDS011;50714;49.208;5.364;2022-08-25T10:33:15;1.00;;;0.90;;
48026;SDS011;50714;49.208;5.364;2022-08-25T10:43:40;1.17;;;1.02;;
48026;SDS011;50714;49.208;5.364;2022-08-25T11:03:56;1.20;;;1.10;;
48026;SDS011;50714;49.208;5.364;2022-08-25T11:14:08;1.03;;;0.80;;
48026;SDS011;50714;49.208;5.364;2022-08-25T11:34:56;0.93;;;0.90;;
48026;SDS011;50714;49.208;5.364;2022-08-25T11:45:04;1.35;;;0.85;;
48026;SDS011;50714;49.208;5.364;2022-08-25T12:25:42;1.20;;;1.00;;
48026;SDS011;50714;49.208;5.364;2022-08-25T12:35:55;0.70;;;0.70;;
48026;SDS011;50714;49.208;5.364;2022-08-25T13:17:11;0.90;;;0.90;;
48026;SDS011;50714;49.208;5.364;2022-08-25T13:27:25;0.93;;;0.80;;
48026;SDS011;50714;49.208;5.364;2022-08-25T13:37:27;0.90;;;0.80;;
48026;SDS011;50714;49.208;5.364;2022-08-25T13:47:31;0.82;;;0.82;;
48026;SDS011;50714;49.208;5.364;2022-08-25T13:57:40;0.95;;;0.90;;
48026;SDS011;50714;49.208;5.364;2022-08-25T14:07:53;0.85;;;0.77;;
48026;SDS011;50714;49.208;5.364;2022-08-25T14:17:59;0.98;;;0.80;;
48026;SDS011;50714;49.208;5.364;2022-08-25T14:28:01;1.00;;;0.90;;
48026;SDS011;50714;49.208;5.364;2022-08-25T14:38:06;1.23;;;0.80;;
48026;SDS011;50714;49.208;5.364;2022-08-25T14:48:09;1.17;;;1.02;;
48026;SDS011;50714;49.208;5.364;2022-08-25T14:58:22;0.80;;;0.77;;
48026;SDS011;50714;49.208;5.364;2022-08-25T15:08:23;0.70;;;0.70;;
48026;SDS011;50714;49.208;5.364;2022-08-25T15:18:42;1.30;;;0.80;;
48026;SDS011;50714;49.208;5.364;2022-08-25T15:28:44;0.73;;;0.70;;
48026;SDS011;50714;49.208;5.364;2022-08-25T15:38:47;0.93;;;0.80;;
48026;SDS011;50714;49.208;5.364;2022-08-25T15:48:48;0.80;;;0.80;;
48026;SDS011;50714;49.208;5.364;2022-08-25T15:58:48;0.70;;;0.70;;
48026;SDS011;50714;49.208;5.364;2022-08-25T16:08:49;0.68;;;0.68;;
48026;SDS011;50714;49.208;5.364;2022-08-25T16:18:50;0.88;;;0.80;;
48026;SDS011;50714;49.208;5.364;2022-08-25T16:28:51;0.75;;;0.73;;
48026;SDS011;50714;49.208;5.364;2022-08-25T16:38:52;0.85;;;0.70;;
48026;SDS011;50714;49.208;5.364;2022-08-25T16:48:53;0.80;;;0.80;;
48026;SDS011;50714;49.208;5.364;2022-08-25T16:58:55;1.15;;;0.90;;
48026;SDS011;50714;49.208;5.364;2022-08-25T17:08:57;1.05;;;0.70;;
48026;SDS011;50714;49.208;5.364;2022-08-25T17:18:58;0.85;;;0.85;;
48026;SDS011;50714;49.208;5.364;2022-08-25T17:29:00;0.57;;;0.57;;
48026;SDS011;50714;49.208;5.364;2022-08-25T17:39:00;1.75;;;0.93;;
48026;SDS011;50714;49.208;5.364;2022-08-25T17:49:01;1.60;;;0.80;;
48026;SDS011;50714;49.208;5.364;2022-08-25T17:59:01;1.53;;;0.87;;
48026;SDS011;50714;49.208;5.364;2022-08-25T18:09:02;1.13;;;1.00;;
48026;SDS011;50714;49.208;5.364;2022-08-25T18:19:05;3.22;;;1.10;;
48026;SDS011;50714;49.208;5.364;2022-08-25T18:29:06;0.98;;;0.93;;
48026;SDS011;50714;49.208;5.364;2022-08-25T18:39:07;1.50;;;1.05;;
48026;SDS011;50714;49.208;5.364;2022-08-25T18:49:26;2.42;;;1.80;;
48026;SDS011;50714;49.208;5.364;2022-08-25T18:59:26;3.70;;;2.75;;
48026;SDS011;50714;49.208;5.364;2022-08-25T19:09:27;1.58;;;1.30;;
48026;SDS011;50714;49.208;5.364;2022-08-25T19:19:27;2.03;;;1.35;;
48026;SDS011;50714;49.208;5.364;2022-08-25T19:29:28;2.50;;;1.10;;
48026;SDS011;50714;49.208;5.364;2022-08-25T19:39:31;1.00;;;0.88;;
48026;SDS011;50714;49.208;5.364;2022-08-25T19:49:33;1.40;;;0.82;;
48026;SDS011;50714;49.208;5.364;2022-08-25T19:59:35;0.93;;;0.85;;
48026;SDS011;50714;49.208;5.364;2022-08-25T20:09:38;1.02;;;0.93;;
48026;SDS011;50714;49.208;5.364;2022-08-25T20:19:38;1.52;;;1.02;;
48026;SDS011;50714;49.208;5.364;2022-08-25T20:29:39;1.52;;;0.98;;
48026;SDS011;50714;49.208;5.364;2022-08-25T20:39:39;2.10;;;1.15;;
48026;SDS011;50714;49.208;5.364;2022-08-25T20:49:40;1.08;;;0.90;;
48026;SDS011;50714;49.208;5.364;2022-08-25T20:59:42;1.23;;;0.95;;
48026;SDS011;50714;49.208;5.364;2022-08-25T21:09:43;2.05;;;1.20;;
48026;SDS011;50714;49.208;5.364;2022-08-25T21:19:43;1.55;;;1.15;;
48026;SDS011;50714;49.208;5.364;2022-08-25T21:29:43;1.23;;;1.05;;
48026;SDS011;50714;49.208;5.364;2022-08-25T21:39:44;2.55;;;1.30;;
48026;SDS011;50714;49.208;5.364;2022-08-25T21:49:44;1.23;;;1.10;;
48026;SDS011;50714;49.208;5.364;2022-08-25T21:59:45;1.95;;;0.98;;
48026;SDS011;50714;49.208;5.364;2022-08-25T22:09:45;1.30;;;1.10;;
48026;SDS011;50714;49.208;5.364;2022-08-25T22:19:45;2.42;;;1.20;;
48026;SDS011;50714;49.208;5.364;2022-08-25T22:29:46;1.30;;;1.17;;
48026;SDS011;50714;49.208;5.364;2022-08-25T22:39:46;2.13;;;1.10;;
48026;SDS011;50714;49.208;5.364;2022-08-25T22:49:47;1.20;;;1.10;;
48026;SDS011;50714;49.208;5.364;2022-08-25T22:59:48;1.52;;;1.08;;
48026;SDS011;50714;49.208;5.364;2022-08-25T23:09:48;1.50;;;1.08;;
48026;SDS011;50714;49.208;5.364;2022-08-25T23:19:49;1.52;;;1.10;;
48026;SDS011;50714;49.208;5.364;2022-08-25T23:29:49;1.15;;;1.05;;
48026;SDS011;50714;49.208;5.364;2022-08-25T23:39:49;1.35;;;1.25;;
48026;SDS011;50714;49.208;5.364;2022-08-25T23:49:50;1.23;;;1.00;;
48026;SDS011;50714;49.208;5.364;2022-08-25T23:59:50;1.35;;;1.10;;
